Terminal Aerodrome Forecast
Issued by NWS Shreveport, LA

Home | Current Version | Previous Version | Text Only | Print | Product List | Glossary On
Versions: 1 2 3 4 5 6 7 8 9 10 11 12 13
900
FTUS44 KSHV 260529
TAFGGG
TAF
KGGG 260529Z 2606/2706 17006KT P6SM SKC
      TEMPO 2609/2613 5SM BR BKN010
     FM261300 21008KT P6SM BKN010
     FM261500 19010KT P6SM SCT035
     FM270000 17004KT P6SM SKC=

USA.gov is the U.S. government's official web portal to all federal, state and local government web resources and services.